sensor_id;sensor_type;location;lat;lon;timestamp;P1;durP1;ratioP1;P2;durP2;ratioP2
60641;SDS011;46837;52.446;-1.930;2023-03-04T00:00:07;13.92;;;3.60;;
60641;SDS011;46837;52.446;-1.930;2023-03-04T00:01:07;13.28;;;3.08;;
60641;SDS011;46837;52.446;-1.930;2023-03-04T00:02:07;13.44;;;2.82;;
60641;SDS011;46837;52.446;-1.930;2023-03-04T00:03:07;19.44;;;3.68;;
60641;SDS011;46837;52.446;-1.930;2023-03-04T00:04:07;7.80;;;3.48;;
60641;SDS011;46837;52.446;-1.930;2023-03-04T00:05:07;9.00;;;2.38;;
60641;SDS011;46837;52.446;-1.930;2023-03-04T00:06:07;11.64;;;3.22;;
60641;SDS011;46837;52.446;-1.930;2023-03-04T00:07:07;8.50;;;2.84;;
60641;SDS011;46837;52.446;-1.930;2023-03-04T00:08:07;14.20;;;3.32;;
60641;SDS011;46837;52.446;-1.930;2023-03-04T00:09:07;7.10;;;3.02;;
60641;SDS011;46837;52.446;-1.930;2023-03-04T00:10:07;12.16;;;3.64;;
60641;SDS011;46837;52.446;-1.930;2023-03-04T00:11:07;9.82;;;3.10;;
60641;SDS011;46837;52.446;-1.930;2023-03-04T00:12:08;10.40;;;3.80;;
60641;SDS011;46837;52.446;-1.930;2023-03-04T00:13:07;6.78;;;2.74;;
60641;SDS011;46837;52.446;-1.930;2023-03-04T00:14:07;10.76;;;3.02;;
60641;SDS011;46837;52.446;-1.930;2023-03-04T00:15:07;7.72;;;3.38;;
60641;SDS011;46837;52.446;-1.930;2023-03-04T00:16:07;15.76;;;4.06;;
60641;SDS011;46837;52.446;-1.930;2023-03-04T00:17:07;8.88;;;4.24;;
60641;SDS011;46837;52.446;-1.930;2023-03-04T00:18:07;9.16;;;3.62;;
60641;SDS011;46837;52.446;-1.930;2023-03-04T00:19:07;9.82;;;5.16;;
60641;SDS011;46837;52.446;-1.930;2023-03-04T00:20:07;11.82;;;4.68;;
60641;SDS011;46837;52.446;-1.930;2023-03-04T00:21:07;19.44;;;5.66;;
60641;SDS011;46837;52.446;-1.930;2023-03-04T00:22:07;15.26;;;4.88;;
60641;SDS011;46837;52.446;-1.930;2023-03-04T00:23:07;11.48;;;5.56;;
60641;SDS011;46837;52.446;-1.930;2023-03-04T00:24:07;21.60;;;6.54;;
60641;SDS011;46837;52.446;-1.930;2023-03-04T00:25:07;13.10;;;6.50;;
60641;SDS011;46837;52.446;-1.930;2023-03-04T00:26:07;18.76;;;6.32;;
60641;SDS011;46837;52.446;-1.930;2023-03-04T00:27:07;16.82;;;7.20;;
60641;SDS011;46837;52.446;-1.930;2023-03-04T00:28:07;12.34;;;5.64;;
60641;SDS011;46837;52.446;-1.930;2023-03-04T00:29:07;10.98;;;6.44;;
60641;SDS011;46837;52.446;-1.930;2023-03-04T00:30:07;15.08;;;5.58;;
60641;SDS011;46837;52.446;-1.930;2023-03-04T00:31:07;23.32;;;6.64;;
60641;SDS011;46837;52.446;-1.930;2023-03-04T00:32:07;18.62;;;5.26;;
60641;SDS011;46837;52.446;-1.930;2023-03-04T00:33:07;19.50;;;7.78;;
60641;SDS011;46837;52.446;-1.930;2023-03-04T00:34:07;15.78;;;8.06;;
60641;SDS011;46837;52.446;-1.930;2023-03-04T00:35:07;13.90;;;8.16;;
60641;SDS011;46837;52.446;-1.930;2023-03-04T00:36:07;18.52;;;8.44;;
60641;SDS011;46837;52.446;-1.930;2023-03-04T00:37:07;19.16;;;7.66;;
60641;SDS011;46837;52.446;-1.930;2023-03-04T00:38:07;22.48;;;10.14;;
60641;SDS011;46837;52.446;-1.930;2023-03-04T00:39:07;23.68;;;9.20;;
60641;SDS011;46837;52.446;-1.930;2023-03-04T00:40:07;17.24;;;8.78;;
60641;SDS011;46837;52.446;-1.930;2023-03-04T00:41:07;15.46;;;7.82;;
60641;SDS011;46837;52.446;-1.930;2023-03-04T00:42:07;13.96;;;8.50;;
60641;SDS011;46837;52.446;-1.930;2023-03-04T00:43:07;18.34;;;8.18;;
60641;SDS011;46837;52.446;-1.930;2023-03-04T00:44:07;23.96;;;9.26;;
60641;SDS011;46837;52.446;-1.930;2023-03-04T00:45:07;17.50;;;8.94;;
60641;SDS011;46837;52.446;-1.930;2023-03-04T00:46:07;17.26;;;8.82;;
60641;SDS011;46837;52.446;-1.930;2023-03-04T00:47:07;19.10;;;8.42;;
60641;SDS011;46837;52.446;-1.930;2023-03-04T00:48:07;13.80;;;9.40;;
60641;SDS011;46837;52.446;-1.930;2023-03-04T00:49:07;16.20;;;9.86;;
60641;SDS011;46837;52.446;-1.930;2023-03-04T00:50:07;19.38;;;8.82;;
60641;SDS011;46837;52.446;-1.930;2023-03-04T00:51:07;25.44;;;10.86;;
60641;SDS011;46837;52.446;-1.930;2023-03-04T00:52:07;15.68;;;10.00;;
60641;SDS011;46837;52.446;-1.930;2023-03-04T00:53:07;21.34;;;10.48;;
60641;SDS011;46837;52.446;-1.930;2023-03-04T00:54:07;23.96;;;9.34;;
60641;SDS011;46837;52.446;-1.930;2023-03-04T00:55:07;38.02;;;12.66;;
60641;SDS011;46837;52.446;-1.930;2023-03-04T00:56:07;15.56;;;9.84;;
60641;SDS011;46837;52.446;-1.930;2023-03-04T00:57:07;20.58;;;9.76;;
60641;SDS011;46837;52.446;-1.930;2023-03-04T00:58:07;17.94;;;9.60;;
60641;SDS011;46837;52.446;-1.930;2023-03-04T00:59:07;20.50;;;9.48;;
60641;SDS011;46837;52.446;-1.930;2023-03-04T01:00:07;18.60;;;8.76;;
60641;SDS011;46837;52.446;-1.930;2023-03-04T01:01:07;14.42;;;9.70;;
60641;SDS011;46837;52.446;-1.930;2023-03-04T01:02:07;14.12;;;8.58;;
60641;SDS011;46837;52.446;-1.930;2023-03-04T01:03:07;17.90;;;8.96;;
60641;SDS011;46837;52.446;-1.930;2023-03-04T01:04:07;18.18;;;10.22;;
60641;SDS011;46837;52.446;-1.930;2023-03-04T01:05:07;18.16;;;9.86;;
60641;SDS011;46837;52.446;-1.930;2023-03-04T01:06:07;15.28;;;8.72;;
60641;SDS011;46837;52.446;-1.930;2023-03-04T01:07:07;13.34;;;9.02;;
60641;SDS011;46837;52.446;-1.930;2023-03-04T01:08:07;14.74;;;8.82;;
60641;SDS011;46837;52.446;-1.930;2023-03-04T01:09:07;20.14;;;8.46;;
60641;SDS011;46837;52.446;-1.930;2023-03-04T01:10:07;22.48;;;9.62;;
60641;SDS011;46837;52.446;-1.930;2023-03-04T01:11:07;13.68;;;7.94;;
60641;SDS011;46837;52.446;-1.930;2023-03-04T01:12:07;16.56;;;8.44;;
60641;SDS011;46837;52.446;-1.930;2023-03-04T01:13:07;16.08;;;8.52;;
60641;SDS011;46837;52.446;-1.930;2023-03-04T01:14:07;15.52;;;8.58;;
60641;SDS011;46837;52.446;-1.930;2023-03-04T01:15:10;18.14;;;8.74;;
60641;SDS011;46837;52.446;-1.930;2023-03-04T01:16:07;17.54;;;8.70;;
60641;SDS011;46837;52.446;-1.930;2023-03-04T01:17:07;14.48;;;8.52;;
60641;SDS011;46837;52.446;-1.930;2023-03-04T01:18:07;14.22;;;8.90;;
60641;SDS011;46837;52.446;-1.930;2023-03-04T01:19:07;14.76;;;9.22;;
60641;SDS011;46837;52.446;-1.930;2023-03-04T01:20:07;30.58;;;9.64;;
60641;SDS011;46837;52.446;-1.930;2023-03-04T01:21:07;21.26;;;10.14;;
60641;SDS011;46837;52.446;-1.930;2023-03-04T01:22:07;21.58;;;9.06;;
60641;SDS011;46837;52.446;-1.930;2023-03-04T01:23:07;16.72;;;9.12;;
60641;SDS011;46837;52.446;-1.930;2023-03-04T01:24:07;17.46;;;9.30;;
60641;SDS011;46837;52.446;-1.930;2023-03-04T01:25:07;23.66;;;9.22;;
60641;SDS011;46837;52.446;-1.930;2023-03-04T01:26:07;17.06;;;8.76;;
60641;SDS011;46837;52.446;-1.930;2023-03-04T01:27:07;20.94;;;10.68;;
60641;SDS011;46837;52.446;-1.930;2023-03-04T01:28:07;25.76;;;9.68;;
60641;SDS011;46837;52.446;-1.930;2023-03-04T01:29:07;15.22;;;9.10;;
60641;SDS011;46837;52.446;-1.930;2023-03-04T01:30:07;20.26;;;9.90;;
60641;SDS011;46837;52.446;-1.930;2023-03-04T01:31:07;17.26;;;9.04;;
60641;SDS011;46837;52.446;-1.930;2023-03-04T01:32:07;20.78;;;10.76;;
60641;SDS011;46837;52.446;-1.930;2023-03-04T01:33:07;17.80;;;9.30;;
60641;SDS011;46837;52.446;-1.930;2023-03-04T01:34:07;19.66;;;10.10;;
60641;SDS011;46837;52.446;-1.930;2023-03-04T01:35:07;18.32;;;9.52;;
60641;SDS011;46837;52.446;-1.930;2023-03-04T01:36:07;19.94;;;9.98;;
60641;SDS011;46837;52.446;-1.930;2023-03-04T01:37:07;22.68;;;10.76;;
60641;SDS011;46837;52.446;-1.930;2023-03-04T01:38:07;16.04;;;9.70;;
60641;SDS011;46837;52.446;-1.930;2023-03-04T01:39:07;15.24;;;10.42;;
60641;SDS011;46837;52.446;-1.930;2023-03-04T01:40:07;12.58;;;10.00;;
60641;SDS011;46837;52.446;-1.930;2023-03-04T01:41:07;22.02;;;10.38;;
60641;SDS011;46837;52.446;-1.930;2023-03-04T01:42:11;13.40;;;9.70;;
60641;SDS011;46837;52.446;-1.930;2023-03-04T01:43:08;18.68;;;10.66;;
60641;SDS011;46837;52.446;-1.930;2023-03-04T01:44:07;22.28;;;11.26;;
60641;SDS011;46837;52.446;-1.930;2023-03-04T01:45:09;19.96;;;9.78;;
60641;SDS011;46837;52.446;-1.930;2023-03-04T01:46:08;18.48;;;10.30;;
60641;SDS011;46837;52.446;-1.930;2023-03-04T01:47:07;19.66;;;10.40;;
60641;SDS011;46837;52.446;-1.930;2023-03-04T01:48:08;19.22;;;10.72;;
60641;SDS011;46837;52.446;-1.930;2023-03-04T01:49:08;14.70;;;9.60;;
60641;SDS011;46837;52.446;-1.930;2023-03-04T01:50:10;20.74;;;11.72;;
60641;SDS011;46837;52.446;-1.930;2023-03-04T01:51:10;14.40;;;9.54;;
60641;SDS011;46837;52.446;-1.930;2023-03-04T01:53:09;15.52;;;8.84;;
60641;SDS011;46837;52.446;-1.930;2023-03-04T01:54:07;17.46;;;8.36;;
60641;SDS011;46837;52.446;-1.930;2023-03-04T01:55:13;19.56;;;9.48;;
60641;SDS011;46837;52.446;-1.930;2023-03-04T01:56:27;19.26;;;10.36;;
60641;SDS011;46837;52.446;-1.930;2023-03-04T01:58:09;13.04;;;9.20;;
60641;SDS011;46837;52.446;-1.930;2023-03-04T02:01:08;22.24;;;9.78;;
60641;SDS011;46837;52.446;-1.930;2023-03-04T02:02:07;20.28;;;10.02;;
60641;SDS011;46837;52.446;-1.930;2023-03-04T02:03:10;21.36;;;10.02;;
60641;SDS011;46837;52.446;-1.930;2023-03-04T02:04:07;22.04;;;9.82;;
60641;SDS011;46837;52.446;-1.930;2023-03-04T02:05:07;23.82;;;10.58;;
60641;SDS011;46837;52.446;-1.930;2023-03-04T02:06:07;17.10;;;10.40;;
60641;SDS011;46837;52.446;-1.930;2023-03-04T02:07:07;23.04;;;11.04;;
60641;SDS011;46837;52.446;-1.930;2023-03-04T02:08:07;15.62;;;9.96;;
60641;SDS011;46837;52.446;-1.930;2023-03-04T02:09:07;20.46;;;11.00;;
60641;SDS011;46837;52.446;-1.930;2023-03-04T02:10:07;19.76;;;10.42;;
60641;SDS011;46837;52.446;-1.930;2023-03-04T02:11:07;20.10;;;11.80;;
60641;SDS011;46837;52.446;-1.930;2023-03-04T02:12:07;14.18;;;9.70;;
60641;SDS011;46837;52.446;-1.930;2023-03-04T02:13:07;17.14;;;10.74;;
60641;SDS011;46837;52.446;-1.930;2023-03-04T02:14:07;26.54;;;11.52;;
60641;SDS011;46837;52.446;-1.930;2023-03-04T02:15:07;21.48;;;13.24;;
60641;SDS011;46837;52.446;-1.930;2023-03-04T02:16:07;22.02;;;11.40;;
60641;SDS011;46837;52.446;-1.930;2023-03-04T02:19:12;21.26;;;10.26;;
60641;SDS011;46837;52.446;-1.930;2023-03-04T02:20:12;20.52;;;10.96;;
60641;SDS011;46837;52.446;-1.930;2023-03-04T02:21:12;23.84;;;10.92;;
60641;SDS011;46837;52.446;-1.930;2023-03-04T02:22:07;27.96;;;11.04;;
60641;SDS011;46837;52.446;-1.930;2023-03-04T02:25:08;26.30;;;10.34;;
60641;SDS011;46837;52.446;-1.930;2023-03-04T02:26:09;18.50;;;10.22;;
60641;SDS011;46837;52.446;-1.930;2023-03-04T02:27:07;16.26;;;10.40;;
60641;SDS011;46837;52.446;-1.930;2023-03-04T02:28:07;21.30;;;10.10;;
60641;SDS011;46837;52.446;-1.930;2023-03-04T02:29:07;18.38;;;9.60;;
60641;SDS011;46837;52.446;-1.930;2023-03-04T02:30:08;28.56;;;11.70;;
60641;SDS011;46837;52.446;-1.930;2023-03-04T02:31:10;21.18;;;11.60;;
60641;SDS011;46837;52.446;-1.930;2023-03-04T02:32:08;18.14;;;9.08;;
60641;SDS011;46837;52.446;-1.930;2023-03-04T02:33:10;18.28;;;9.58;;
60641;SDS011;46837;52.446;-1.930;2023-03-04T02:34:10;14.94;;;8.64;;
60641;SDS011;46837;52.446;-1.930;2023-03-04T02:35:08;13.76;;;8.84;;
60641;SDS011;46837;52.446;-1.930;2023-03-04T02:36:07;20.84;;;9.92;;
60641;SDS011;46837;52.446;-1.930;2023-03-04T02:37:08;11.48;;;9.14;;
60641;SDS011;46837;52.446;-1.930;2023-03-04T02:38:08;22.90;;;9.06;;
60641;SDS011;46837;52.446;-1.930;2023-03-04T02:39:20;20.38;;;10.46;;
60641;SDS011;46837;52.446;-1.930;2023-03-04T02:40:09;16.74;;;9.46;;
60641;SDS011;46837;52.446;-1.930;2023-03-04T02:41:08;18.06;;;9.54;;
60641;SDS011;46837;52.446;-1.930;2023-03-04T02:42:07;18.74;;;9.76;;
60641;SDS011;46837;52.446;-1.930;2023-03-04T02:43:08;14.60;;;8.82;;
60641;SDS011;46837;52.446;-1.930;2023-03-04T02:44:25;17.02;;;9.42;;
60641;SDS011;46837;52.446;-1.930;2023-03-04T02:45:26;17.26;;;9.78;;
60641;SDS011;46837;52.446;-1.930;2023-03-04T02:46:09;21.10;;;9.92;;
60641;SDS011;46837;52.446;-1.930;2023-03-04T02:47:08;16.66;;;8.94;;
60641;SDS011;46837;52.446;-1.930;2023-03-04T02:48:07;17.78;;;9.28;;
60641;SDS011;46837;52.446;-1.930;2023-03-04T02:49:07;18.28;;;10.08;;
60641;SDS011;46837;52.446;-1.930;2023-03-04T02:50:07;21.80;;;9.18;;
60641;SDS011;46837;52.446;-1.930;2023-03-04T02:51:07;13.24;;;8.36;;
60641;SDS011;46837;52.446;-1.930;2023-03-04T02:52:08;15.54;;;8.84;;
60641;SDS011;46837;52.446;-1.930;2023-03-04T02:53:07;17.02;;;8.58;;
60641;SDS011;46837;52.446;-1.930;2023-03-04T02:55:07;15.22;;;9.36;;
60641;SDS011;46837;52.446;-1.930;2023-03-04T02:56:07;21.88;;;8.88;;
60641;SDS011;46837;52.446;-1.930;2023-03-04T02:57:07;15.58;;;9.78;;
60641;SDS011;46837;52.446;-1.930;2023-03-04T02:58:07;17.08;;;9.84;;
60641;SDS011;46837;52.446;-1.930;2023-03-04T02:59:07;18.80;;;9.42;;
60641;SDS011;46837;52.446;-1.930;2023-03-04T03:00:07;13.62;;;9.02;;
60641;SDS011;46837;52.446;-1.930;2023-03-04T03:01:07;11.92;;;8.26;;
60641;SDS011;46837;52.446;-1.930;2023-03-04T03:02:07;17.60;;;9.28;;
60641;SDS011;46837;52.446;-1.930;2023-03-04T03:03:07;17.42;;;8.02;;
60641;SDS011;46837;52.446;-1.930;2023-03-04T03:04:07;18.10;;;8.94;;
60641;SDS011;46837;52.446;-1.930;2023-03-04T03:05:07;12.18;;;7.74;;
60641;SDS011;46837;52.446;-1.930;2023-03-04T03:06:07;29.76;;;8.72;;
60641;SDS011;46837;52.446;-1.930;2023-03-04T03:07:07;13.38;;;6.40;;
60641;SDS011;46837;52.446;-1.930;2023-03-04T03:08:07;12.24;;;7.58;;
60641;SDS011;46837;52.446;-1.930;2023-03-04T03:09:07;13.70;;;7.38;;
60641;SDS011;46837;52.446;-1.930;2023-03-04T03:10:07;16.70;;;8.50;;
60641;SDS011;46837;52.446;-1.930;2023-03-04T03:11:07;19.14;;;7.66;;
60641;SDS011;46837;52.446;-1.930;2023-03-04T03:12:07;14.26;;;7.40;;
60641;SDS011;46837;52.446;-1.930;2023-03-04T03:13:07;15.40;;;7.34;;
60641;SDS011;46837;52.446;-1.930;2023-03-04T03:14:07;16.06;;;7.76;;
60641;SDS011;46837;52.446;-1.930;2023-03-04T03:15:07;14.38;;;7.28;;
60641;SDS011;46837;52.446;-1.930;2023-03-04T03:16:07;10.36;;;6.56;;
60641;SDS011;46837;52.446;-1.930;2023-03-04T03:17:07;13.50;;;6.92;;
60641;SDS011;46837;52.446;-1.930;2023-03-04T03:18:10;8.36;;;6.76;;
60641;SDS011;46837;52.446;-1.930;2023-03-04T03:19:07;15.26;;;7.02;;
60641;SDS011;46837;52.446;-1.930;2023-03-04T03:20:07;18.10;;;7.10;;
60641;SDS011;46837;52.446;-1.930;2023-03-04T03:21:07;15.22;;;5.90;;
60641;SDS011;46837;52.446;-1.930;2023-03-04T03:22:07;12.36;;;6.34;;
60641;SDS011;46837;52.446;-1.930;2023-03-04T03:23:07;15.82;;;6.06;;
60641;SDS011;46837;52.446;-1.930;2023-03-04T03:24:07;8.92;;;5.78;;
60641;SDS011;46837;52.446;-1.930;2023-03-04T03:25:07;12.08;;;4.94;;
60641;SDS011;46837;52.446;-1.930;2023-03-04T03:26:07;7.88;;;5.04;;
60641;SDS011;46837;52.446;-1.930;2023-03-04T03:27:07;8.10;;;4.60;;
60641;SDS011;46837;52.446;-1.930;2023-03-04T03:28:07;11.36;;;5.36;;
60641;SDS011;46837;52.446;-1.930;2023-03-04T03:29:07;13.56;;;4.60;;
60641;SDS011;46837;52.446;-1.930;2023-03-04T03:30:07;15.44;;;6.32;;
60641;SDS011;46837;52.446;-1.930;2023-03-04T03:31:07;14.42;;;4.42;;
60641;SDS011;46837;52.446;-1.930;2023-03-04T03:32:07;9.48;;;4.62;;
60641;SDS011;46837;52.446;-1.930;2023-03-04T03:33:07;16.26;;;4.86;;
60641;SDS011;46837;52.446;-1.930;2023-03-04T03:34:07;9.26;;;4.36;;
60641;SDS011;46837;52.446;-1.930;2023-03-04T03:35:08;12.96;;;4.48;;
60641;SDS011;46837;52.446;-1.930;2023-03-04T03:36:07;14.76;;;4.98;;
60641;SDS011;46837;52.446;-1.930;2023-03-04T03:37:07;10.02;;;4.54;;
60641;SDS011;46837;52.446;-1.930;2023-03-04T03:38:07;9.52;;;4.06;;
60641;SDS011;46837;52.446;-1.930;2023-03-04T03:39:07;9.94;;;3.76;;
60641;SDS011;46837;52.446;-1.930;2023-03-04T03:40:07;10.64;;;3.88;;
60641;SDS011;46837;52.446;-1.930;2023-03-04T03:41:07;9.54;;;3.56;;
60641;SDS011;46837;52.446;-1.930;2023-03-04T03:42:07;7.54;;;3.70;;
60641;SDS011;46837;52.446;-1.930;2023-03-04T03:43:07;6.20;;;3.28;;
60641;SDS011;46837;52.446;-1.930;2023-03-04T03:44:07;7.02;;;3.80;;
60641;SDS011;46837;52.446;-1.930;2023-03-04T03:45:07;11.64;;;4.82;;
60641;SDS011;46837;52.446;-1.930;2023-03-04T03:46:07;14.14;;;4.66;;
60641;SDS011;46837;52.446;-1.930;2023-03-04T03:47:07;10.16;;;3.08;;
60641;SDS011;46837;52.446;-1.930;2023-03-04T03:48:07;7.86;;;3.34;;
60641;SDS011;46837;52.446;-1.930;2023-03-04T03:49:07;13.72;;;3.92;;
60641;SDS011;46837;52.446;-1.930;2023-03-04T03:50:07;6.78;;;3.70;;
60641;SDS011;46837;52.446;-1.930;2023-03-04T03:51:07;7.46;;;4.24;;
60641;SDS011;46837;52.446;-1.930;2023-03-04T03:52:08;13.20;;;3.98;;
60641;SDS011;46837;52.446;-1.930;2023-03-04T03:53:07;16.26;;;3.76;;
60641;SDS011;46837;52.446;-1.930;2023-03-04T03:54:07;9.94;;;3.00;;
60641;SDS011;46837;52.446;-1.930;2023-03-04T03:55:07;9.46;;;3.42;;
60641;SDS011;46837;52.446;-1.930;2023-03-04T03:56:07;13.54;;;3.86;;
60641;SDS011;46837;52.446;-1.930;2023-03-04T03:57:07;15.74;;;3.82;;
60641;SDS011;46837;52.446;-1.930;2023-03-04T03:58:07;9.86;;;3.46;;
60641;SDS011;46837;52.446;-1.930;2023-03-04T03:59:07;8.64;;;2.98;;
60641;SDS011;46837;52.446;-1.930;2023-03-04T04:00:07;10.64;;;3.40;;
60641;SDS011;46837;52.446;-1.930;2023-03-04T04:01:07;9.18;;;3.20;;
60641;SDS011;46837;52.446;-1.930;2023-03-04T04:02:07;9.84;;;3.22;;
60641;SDS011;46837;52.446;-1.930;2023-03-04T04:03:08;8.66;;;2.72;;
60641;SDS011;46837;52.446;-1.930;2023-03-04T04:04:07;11.54;;;3.28;;
60641;SDS011;46837;52.446;-1.930;2023-03-04T04:05:07;12.58;;;3.46;;
60641;SDS011;46837;52.446;-1.930;2023-03-04T04:06:07;12.28;;;3.26;;
60641;SDS011;46837;52.446;-1.930;2023-03-04T04:07:07;10.30;;;3.06;;
60641;SDS011;46837;52.446;-1.930;2023-03-04T04:08:09;6.06;;;2.74;;
60641;SDS011;46837;52.446;-1.930;2023-03-04T04:09:07;11.18;;;3.24;;
60641;SDS011;46837;52.446;-1.930;2023-03-04T04:10:07;10.88;;;2.92;;
60641;SDS011;46837;52.446;-1.930;2023-03-04T04:11:10;10.16;;;3.32;;
60641;SDS011;46837;52.446;-1.930;2023-03-04T04:12:07;11.92;;;3.50;;
60641;SDS011;46837;52.446;-1.930;2023-03-04T04:13:07;16.70;;;3.70;;
60641;SDS011;46837;52.446;-1.930;2023-03-04T04:14:07;11.54;;;3.50;;
60641;SDS011;46837;52.446;-1.930;2023-03-04T04:15:08;8.34;;;3.58;;
60641;SDS011;46837;52.446;-1.930;2023-03-04T04:16:07;9.20;;;4.34;;
60641;SDS011;46837;52.446;-1.930;2023-03-04T04:17:07;12.70;;;5.34;;
60641;SDS011;46837;52.446;-1.930;2023-03-04T04:18:07;10.80;;;4.64;;
60641;SDS011;46837;52.446;-1.930;2023-03-04T04:19:07;12.34;;;4.02;;
60641;SDS011;46837;52.446;-1.930;2023-03-04T04:20:07;13.04;;;5.42;;
60641;SDS011;46837;52.446;-1.930;2023-03-04T04:21:07;7.50;;;4.88;;
60641;SDS011;46837;52.446;-1.930;2023-03-04T04:22:07;15.94;;;5.38;;
60641;SDS011;46837;52.446;-1.930;2023-03-04T04:23:07;13.50;;;5.12;;
60641;SDS011;46837;52.446;-1.930;2023-03-04T04:24:07;9.24;;;5.68;;
60641;SDS011;46837;52.446;-1.930;2023-03-04T04:25:07;14.34;;;5.42;;
60641;SDS011;46837;52.446;-1.930;2023-03-04T04:26:07;11.40;;;5.38;;
60641;SDS011;46837;52.446;-1.930;2023-03-04T04:27:07;14.86;;;6.46;;
60641;SDS011;46837;52.446;-1.930;2023-03-04T04:28:07;17.38;;;6.26;;
60641;SDS011;46837;52.446;-1.930;2023-03-04T04:29:07;14.16;;;6.08;;
60641;SDS011;46837;52.446;-1.930;2023-03-04T04:30:07;11.54;;;5.82;;
60641;SDS011;46837;52.446;-1.930;2023-03-04T04:31:07;12.36;;;6.22;;
60641;SDS011;46837;52.446;-1.930;2023-03-04T04:32:07;12.48;;;5.26;;
60641;SDS011;46837;52.446;-1.930;2023-03-04T04:33:07;11.58;;;5.74;;
60641;SDS011;46837;52.446;-1.930;2023-03-04T04:34:07;13.64;;;5.80;;
60641;SDS011;46837;52.446;-1.930;2023-03-04T04:35:07;11.24;;;5.38;;
60641;SDS011;46837;52.446;-1.930;2023-03-04T04:36:08;9.98;;;5.42;;
60641;SDS011;46837;52.446;-1.930;2023-03-04T04:37:07;14.20;;;7.44;;
60641;SDS011;46837;52.446;-1.930;2023-03-04T04:38:07;12.54;;;6.20;;
60641;SDS011;46837;52.446;-1.930;2023-03-04T04:39:07;16.30;;;6.98;;
60641;SDS011;46837;52.446;-1.930;2023-03-04T04:40:07;18.08;;;7.30;;
60641;SDS011;46837;52.446;-1.930;2023-03-04T04:41:11;16.92;;;8.26;;
60641;SDS011;46837;52.446;-1.930;2023-03-04T04:42:08;21.96;;;8.78;;
60641;SDS011;46837;52.446;-1.930;2023-03-04T04:43:07;11.12;;;7.22;;
60641;SDS011;46837;52.446;-1.930;2023-03-04T04:44:07;16.10;;;6.88;;
60641;SDS011;46837;52.446;-1.930;2023-03-04T04:45:07;17.18;;;7.20;;
60641;SDS011;46837;52.446;-1.930;2023-03-04T04:46:07;13.14;;;7.00;;
60641;SDS011;46837;52.446;-1.930;2023-03-04T04:47:07;17.70;;;7.02;;
60641;SDS011;46837;52.446;-1.930;2023-03-04T04:48:07;10.10;;;7.02;;
60641;SDS011;46837;52.446;-1.930;2023-03-04T04:49:07;13.42;;;6.34;;
60641;SDS011;46837;52.446;-1.930;2023-03-04T04:50:07;13.86;;;6.86;;
60641;SDS011;46837;52.446;-1.930;2023-03-04T04:51:07;11.06;;;7.18;;
60641;SDS011;46837;52.446;-1.930;2023-03-04T04:52:07;11.02;;;7.68;;
60641;SDS011;46837;52.446;-1.930;2023-03-04T04:53:07;15.66;;;7.42;;
60641;SDS011;46837;52.446;-1.930;2023-03-04T04:54:07;9.94;;;7.30;;
60641;SDS011;46837;52.446;-1.930;2023-03-04T04:55:07;14.10;;;7.68;;
60641;SDS011;46837;52.446;-1.930;2023-03-04T04:56:07;14.28;;;7.66;;
60641;SDS011;46837;52.446;-1.930;2023-03-04T04:57:07;12.92;;;6.94;;
60641;SDS011;46837;52.446;-1.930;2023-03-04T04:58:07;18.20;;;7.24;;
60641;SDS011;46837;52.446;-1.930;2023-03-04T04:59:07;13.50;;;7.84;;
60641;SDS011;46837;52.446;-1.930;2023-03-04T05:00:07;17.08;;;7.78;;
60641;SDS011;46837;52.446;-1.930;2023-03-04T05:01:07;17.10;;;6.90;;
60641;SDS011;46837;52.446;-1.930;2023-03-04T05:02:07;12.02;;;7.36;;
60641;SDS011;46837;52.446;-1.930;2023-03-04T05:03:07;19.94;;;9.46;;
60641;SDS011;46837;52.446;-1.930;2023-03-04T05:04:07;12.86;;;7.48;;
60641;SDS011;46837;52.446;-1.930;2023-03-04T05:05:07;7.24;;;6.52;;
60641;SDS011;46837;52.446;-1.930;2023-03-04T05:06:08;17.96;;;7.50;;
60641;SDS011;46837;52.446;-1.930;2023-03-04T05:07:07;18.32;;;6.90;;
60641;SDS011;46837;52.446;-1.930;2023-03-04T05:08:07;12.36;;;6.70;;
60641;SDS011;46837;52.446;-1.930;2023-03-04T05:09:07;12.58;;;7.48;;
60641;SDS011;46837;52.446;-1.930;2023-03-04T05:10:07;15.34;;;7.16;;
60641;SDS011;46837;52.446;-1.930;2023-03-04T05:11:07;10.10;;;7.08;;
60641;SDS011;46837;52.446;-1.930;2023-03-04T05:12:07;19.62;;;7.88;;
60641;SDS011;46837;52.446;-1.930;2023-03-04T05:13:07;13.26;;;7.62;;
60641;SDS011;46837;52.446;-1.930;2023-03-04T05:14:07;12.46;;;8.22;;
60641;SDS011;46837;52.446;-1.930;2023-03-04T05:15:07;16.88;;;8.74;;
60641;SDS011;46837;52.446;-1.930;2023-03-04T05:16:07;10.88;;;8.38;;
60641;SDS011;46837;52.446;-1.930;2023-03-04T05:17:07;12.48;;;7.52;;
60641;SDS011;46837;52.446;-1.930;2023-03-04T05:18:07;17.10;;;8.76;;
60641;SDS011;46837;52.446;-1.930;2023-03-04T05:19:07;16.12;;;8.10;;
60641;SDS011;46837;52.446;-1.930;2023-03-04T05:20:07;19.08;;;8.90;;
60641;SDS011;46837;52.446;-1.930;2023-03-04T05:21:07;16.28;;;8.38;;
60641;SDS011;46837;52.446;-1.930;2023-03-04T05:22:07;17.66;;;9.50;;
60641;SDS011;46837;52.446;-1.930;2023-03-04T05:23:07;14.38;;;9.32;;
60641;SDS011;46837;52.446;-1.930;2023-03-04T05:24:07;15.26;;;8.42;;
60641;SDS011;46837;52.446;-1.930;2023-03-04T05:25:07;17.82;;;8.62;;
60641;SDS011;46837;52.446;-1.930;2023-03-04T05:26:07;18.52;;;10.48;;
60641;SDS011;46837;52.446;-1.930;2023-03-04T05:27:07;18.94;;;9.30;;
60641;SDS011;46837;52.446;-1.930;2023-03-04T05:28:07;12.84;;;8.48;;
60641;SDS011;46837;52.446;-1.930;2023-03-04T05:29:07;12.52;;;8.70;;
60641;SDS011;46837;52.446;-1.930;2023-03-04T05:30:07;12.90;;;9.22;;
60641;SDS011;46837;52.446;-1.930;2023-03-04T05:31:07;15.44;;;9.76;;
60641;SDS011;46837;52.446;-1.930;2023-03-04T05:32:07;20.86;;;9.34;;
60641;SDS011;46837;52.446;-1.930;2023-03-04T05:33:07;17.74;;;9.58;;
60641;SDS011;46837;52.446;-1.930;2023-03-04T05:34:07;14.30;;;9.36;;
60641;SDS011;46837;52.446;-1.930;2023-03-04T05:35:07;19.82;;;10.08;;
60641;SDS011;46837;52.446;-1.930;2023-03-04T05:36:07;20.92;;;11.06;;
60641;SDS011;46837;52.446;-1.930;2023-03-04T05:37:07;13.88;;;9.52;;
60641;SDS011;46837;52.446;-1.930;2023-03-04T05:38:08;16.32;;;9.66;;
60641;SDS011;46837;52.446;-1.930;2023-03-04T05:39:07;12.86;;;9.24;;
60641;SDS011;46837;52.446;-1.930;2023-03-04T05:40:07;16.76;;;10.08;;
60641;SDS011;46837;52.446;-1.930;2023-03-04T05:41:07;14.92;;;9.84;;
60641;SDS011;46837;52.446;-1.930;2023-03-04T05:42:07;20.58;;;9.12;;
60641;SDS011;46837;52.446;-1.930;2023-03-04T05:43:07;17.98;;;9.18;;
60641;SDS011;46837;52.446;-1.930;2023-03-04T05:44:07;15.58;;;9.18;;
60641;SDS011;46837;52.446;-1.930;2023-03-04T05:45:07;15.56;;;9.18;;
60641;SDS011;46837;52.446;-1.930;2023-03-04T05:46:07;12.64;;;8.80;;
60641;SDS011;46837;52.446;-1.930;2023-03-04T05:47:07;17.00;;;9.24;;
60641;SDS011;46837;52.446;-1.930;2023-03-04T05:48:07;15.24;;;9.70;;
60641;SDS011;46837;52.446;-1.930;2023-03-04T05:49:07;17.48;;;10.20;;
60641;SDS011;46837;52.446;-1.930;2023-03-04T05:50:07;11.06;;;8.60;;
60641;SDS011;46837;52.446;-1.930;2023-03-04T05:51:07;15.78;;;9.12;;
60641;SDS011;46837;52.446;-1.930;2023-03-04T05:52:07;16.46;;;9.66;;
60641;SDS011;46837;52.446;-1.930;2023-03-04T05:53:07;11.50;;;8.36;;
60641;SDS011;46837;52.446;-1.930;2023-03-04T05:54:07;13.52;;;8.88;;
60641;SDS011;46837;52.446;-1.930;2023-03-04T05:55:07;20.16;;;9.00;;
60641;SDS011;46837;52.446;-1.930;2023-03-04T05:56:16;14.94;;;9.20;;
60641;SDS011;46837;52.446;-1.930;2023-03-04T05:57:07;11.26;;;8.70;;
60641;SDS011;46837;52.446;-1.930;2023-03-04T05:58:07;25.80;;;10.20;;
60641;SDS011;46837;52.446;-1.930;2023-03-04T05:59:07;15.20;;;9.04;;